createdAt,value
2019-02-18T00:02:07.856Z,6.10
2019-02-18T00:08:12.349Z,5.90
2019-02-18T00:14:16.534Z,5.70
2019-02-18T00:20:20.790Z,5.50
2019-02-18T00:26:25.049Z,5.40
2019-02-18T00:32:29.562Z,5.30
2019-02-18T00:38:33.872Z,5.40
2019-02-18T00:44:38.091Z,5.30
2019-02-18T00:50:42.301Z,5.10
2019-02-18T00:56:46.610Z,5.10
2019-02-18T01:02:50.813Z,5.00
2019-02-18T01:08:55.149Z,5.00
2019-02-18T01:14:59.377Z,4.90
2019-02-18T01:21:06.541Z,5.10
2019-02-18T01:27:10.761Z,5.00
2019-02-18T01:33:14.950Z,4.90
2019-02-18T01:39:19.184Z,4.80
2019-02-18T01:45:23.374Z,4.70
2019-02-18T01:51:27.573Z,4.40
2019-02-18T01:57:31.784Z,4.40
2019-02-18T02:03:36.051Z,4.80
2019-02-18T02:09:40.249Z,4.60
2019-02-18T02:15:44.767Z,4.60
2019-02-18T02:21:48.996Z,4.60
2019-02-18T02:27:53.251Z,4.50
2019-02-18T02:33:57.479Z,4.30
2019-02-18T02:40:02.475Z,4.10
2019-02-18T02:46:06.726Z,4.50
2019-02-18T02:52:10.906Z,4.30
2019-02-18T02:58:15.112Z,4.30
2019-02-18T03:04:19.325Z,4.40
2019-02-18T03:10:23.670Z,4.30
2019-02-18T03:16:27.898Z,4.10
2019-02-18T03:22:32.274Z,4.10
2019-02-18T03:29:18.304Z,4.20
2019-02-18T03:35:22.609Z,4.00
2019-02-18T03:41:26.921Z,3.70
2019-02-18T03:47:31.215Z,3.70
2019-02-18T03:53:35.398Z,3.70
2019-02-18T03:59:39.638Z,3.50
2019-02-18T04:05:43.953Z,3.70
2019-02-18T04:11:48.261Z,3.50
2019-02-18T04:17:52.615Z,3.50
2019-02-18T04:23:56.838Z,3.50
2019-02-18T04:30:01.081Z,3.40
2019-02-18T04:36:05.383Z,3.20
2019-02-18T04:42:09.592Z,3.10
2019-02-18T04:48:13.946Z,3.30
2019-02-18T04:54:18.131Z,3.40
2019-02-18T05:00:22.567Z,3.30
2019-02-18T05:06:26.758Z,3.20
2019-02-18T05:12:31.149Z,3.40
2019-02-18T05:18:35.423Z,3.30
2019-02-18T05:24:39.683Z,3.20
2019-02-18T05:30:43.877Z,3.30
2019-02-18T05:36:49.737Z,3.20
2019-02-18T05:42:54.030Z,3.60
2019-02-18T05:48:58.225Z,3.60
2019-02-18T05:55:02.513Z,3.60
2019-02-18T06:01:06.805Z,3.60
2019-02-18T06:07:11.229Z,3.70
2019-02-18T06:13:15.555Z,3.70
2019-02-18T06:19:20.013Z,3.80
2019-02-18T06:25:24.353Z,3.60
2019-02-18T06:31:28.649Z,3.80
2019-02-18T06:37:32.898Z,3.80
2019-02-18T06:43:37.190Z,3.80
2019-02-18T06:49:41.574Z,3.70
2019-02-18T06:55:45.779Z,3.30
2019-02-18T07:02:00.406Z,3.30
2019-02-18T07:08:22.222Z,3.40
2019-02-18T07:14:26.540Z,3.70
2019-02-18T07:20:30.833Z,3.80
2019-02-18T07:26:35.049Z,4.00
2019-02-18T07:32:39.249Z,4.30
2019-02-18T07:38:43.462Z,4.40
2019-02-18T07:44:47.760Z,4.60
2019-02-18T07:50:52.052Z,4.80
2019-02-18T07:56:56.408Z,5.10
2019-02-18T08:03:00.602Z,5.20
2019-02-18T08:09:06.008Z,5.40
2019-02-18T08:15:10.217Z,6.10
2019-02-18T08:21:14.411Z,6.40
2019-02-18T08:27:18.630Z,6.50
2019-02-18T08:33:23.003Z,7.00
2019-02-18T08:39:27.286Z,7.40
2019-02-18T08:45:31.572Z,7.50
2019-02-18T08:51:35.801Z,7.60
2019-02-18T08:57:40.075Z,7.80
2019-02-18T09:03:44.424Z,7.80
2019-02-18T09:09:51.142Z,8.00
2019-02-18T09:16:00.066Z,8.10
2019-02-18T09:22:19.598Z,8.20
2019-02-18T09:28:23.930Z,8.30
2019-02-18T09:34:28.279Z,8.40
2019-02-18T09:40:32.562Z,8.60
2019-02-18T09:46:36.805Z,8.80
2019-02-18T09:52:41.093Z,8.90
2019-02-18T09:58:45.351Z,9.10
2019-02-18T10:04:49.629Z,9.10
2019-02-18T10:10:56.164Z,9.30
2019-02-18T10:16:59.831Z,9.30
2019-02-18T10:23:04.032Z,9.50
2019-02-18T10:29:08.358Z,9.70
2019-02-18T10:35:12.590Z,10.00
2019-02-18T10:41:19.224Z,10.10
2019-02-18T10:47:22.816Z,10.30
2019-02-18T10:53:27.288Z,10.40
2019-02-18T10:59:31.691Z,10.50
2019-02-18T11:05:35.888Z,10.70
2019-02-18T11:11:40.197Z,10.80
2019-02-18T11:17:44.389Z,10.90
2019-02-18T11:23:48.699Z,11.10
2019-02-18T11:29:52.900Z,11.20
2019-02-18T11:35:57.110Z,11.30
2019-02-18T11:42:01.468Z,11.30
2019-02-18T11:48:08.362Z,11.50
2019-02-18T11:54:12.858Z,11.60
2019-02-18T12:00:17.207Z,11.60
2019-02-18T12:06:21.567Z,11.70
2019-02-18T12:12:25.930Z,11.80
2019-02-18T12:18:30.198Z,11.90
2019-02-18T12:24:34.485Z,12.10
2019-02-18T12:30:38.702Z,12.20
2019-02-18T12:36:43.000Z,12.30
2019-02-18T12:42:47.649Z,12.50
2019-02-18T12:48:51.890Z,12.50
2019-02-18T12:54:56.243Z,12.70
2019-02-18T13:01:00.579Z,12.70
2019-02-18T13:07:04.948Z,12.90
2019-02-18T13:13:09.282Z,12.90
2019-02-18T13:19:14.099Z,12.90
2019-02-18T13:25:18.483Z,12.90
2019-02-18T13:31:23.141Z,13.00
2019-02-18T13:37:27.520Z,13.20
2019-02-18T13:43:34.943Z,13.30
2019-02-18T13:49:39.492Z,13.30
2019-02-18T13:55:43.775Z,13.30
2019-02-18T14:01:48.050Z,13.40
2019-02-18T14:07:52.369Z,13.50
2019-02-18T14:13:56.970Z,13.50
2019-02-18T14:20:01.334Z,13.50
2019-02-18T14:26:06.090Z,13.40
2019-02-18T14:32:10.431Z,13.60
2019-02-18T14:38:14.740Z,13.60
2019-02-18T14:44:19.096Z,13.60
2019-02-18T14:50:23.390Z,13.60
2019-02-18T14:56:27.751Z,13.60
2019-02-18T15:02:32.129Z,13.60
2019-02-18T15:08:36.622Z,13.50
2019-02-18T15:14:42.683Z,13.50
2019-02-18T15:20:47.028Z,13.50
2019-02-18T15:26:51.384Z,13.40
2019-02-18T15:32:55.622Z,13.30
2019-02-18T15:38:59.898Z,13.30
2019-02-18T15:45:04.360Z,13.20
2019-02-18T15:51:08.741Z,13.20
2019-02-18T15:57:13.326Z,13.10
2019-02-18T16:03:17.740Z,13.10
2019-02-18T16:09:22.055Z,13.00
2019-02-18T16:15:26.322Z,13.00
2019-02-18T16:21:30.750Z,12.80
2019-02-18T16:27:35.011Z,12.70
2019-02-18T16:33:39.327Z,12.60
2019-02-18T16:39:43.621Z,12.70
2019-02-18T16:45:47.931Z,12.50
2019-02-18T16:51:52.725Z,12.40
2019-02-18T16:57:57.083Z,12.30
2019-02-18T17:04:01.335Z,12.30
2019-02-18T17:10:05.641Z,13.40
2019-02-18T17:16:09.920Z,12.20
2019-02-18T17:22:14.294Z,11.60
2019-02-18T17:28:18.571Z,11.20
2019-02-18T17:34:22.867Z,10.30
2019-02-18T17:40:27.159Z,9.90
2019-02-18T17:46:31.476Z,9.70
2019-02-18T17:52:35.818Z,9.50
2019-02-18T17:58:40.126Z,9.40
2019-02-18T18:04:44.787Z,9.20
2019-02-18T18:10:49.128Z,9.20
2019-02-18T18:16:53.595Z,9.00
2019-02-18T18:22:57.880Z,9.10
2019-02-18T18:29:02.201Z,8.90
2019-02-18T18:35:08.821Z,8.90
2019-02-18T18:41:13.126Z,8.80
2019-02-18T18:47:17.400Z,8.70
2019-02-18T18:53:21.807Z,8.50
2019-02-18T18:59:26.138Z,8.50
2019-02-18T19:05:30.904Z,8.50
2019-02-18T19:11:35.479Z,8.70
2019-02-18T19:17:39.721Z,8.60
2019-02-18T19:23:44.169Z,8.50
2019-02-18T19:29:48.454Z,8.50
2019-02-18T19:35:52.655Z,8.70
2019-02-18T19:41:56.859Z,8.60
2019-02-18T19:48:01.237Z,8.60
2019-02-18T19:54:05.604Z,8.70
2019-02-18T20:00:11.330Z,8.80
2019-02-18T20:06:15.609Z,8.80
2019-02-18T20:12:19.803Z,8.80
2019-02-18T20:18:24.095Z,8.90
2019-02-18T20:24:28.673Z,8.80
2019-02-18T20:30:32.918Z,8.90
2019-02-18T20:36:37.306Z,9.10
2019-02-18T20:42:41.628Z,9.30
2019-02-18T20:48:45.919Z,9.50
2019-02-18T20:54:50.609Z,9.60
2019-02-18T21:00:54.894Z,9.90
2019-02-18T21:06:59.178Z,9.70
2019-02-18T21:13:03.461Z,9.20
2019-02-18T21:19:07.764Z,9.30
2019-02-18T21:25:12.686Z,9.20
2019-02-18T21:31:17.327Z,9.10
2019-02-18T21:37:21.602Z,9.10
2019-02-18T21:43:25.976Z,9.20
2019-02-18T21:49:30.506Z,9.10
2019-02-18T21:55:34.740Z,8.90
2019-02-18T22:01:39.084Z,8.90
2019-02-18T22:07:43.613Z,8.70
2019-02-18T22:13:47.817Z,8.70
2019-02-18T22:19:52.130Z,8.60
2019-02-18T22:25:56.425Z,8.50
2019-02-18T22:32:00.769Z,8.40
2019-02-18T22:38:05.047Z,8.30
2019-02-18T22:44:09.474Z,8.30
2019-02-18T22:50:13.959Z,8.30
2019-02-18T22:56:18.223Z,8.20
2019-02-18T23:02:22.507Z,8.20
2019-02-18T23:08:26.767Z,8.10
2019-02-18T23:14:31.171Z,8.10
2019-02-18T23:20:35.369Z,8.10
2019-02-18T23:26:39.583Z,8.00
2019-02-18T23:32:43.816Z,8.00
2019-02-18T23:38:48.468Z,8.00
2019-02-18T23:44:59.008Z,8.00
2019-02-18T23:50:58.586Z,7.90
2019-02-18T23:57:02.968Z,7.90
